Time;durP1;ratioP1;P1;durP2;ratioP2;P2;SDS_P1;SDS_P2;PMS_P1;PMS_P2;Temp;Humidity;BMP_temperature;BMP_pressure;BME280_temperature;BME280_humidity;BME280_pressure;Samples;Min_cycle;Max_cycle;Signal;HPM_P1;HPM_P2
2023/10/12 00:01:57;;;;;;;9.77;4.32;;;;;;;;;;4910248;29;20024;-61
2023/10/12 00:04:27;;;;;;;11.57;4.28;;;;;;;;;;4925778;29;20035;-60
2023/10/12 00:06:52;;;;;;;15.02;4.60;;;;;;;;;;4917248;29;20093;-60
2023/10/12 00:09:20;;;;;;;11.68;4.28;;;;;;;;;;4914340;29;20056;-60
2023/10/12 00:11:56;;;;;;;14.13;4.57;;;;;;;;;;4924974;29;20047;-60
2023/10/12 00:14:32;;;;;;;14.32;4.65;;;;;;;;;;4933898;29;20062;-61
2023/10/12 00:16:58;;;;;;;12.65;4.25;;;;;;;;;;4935555;29;20465;-60
2023/10/12 00:19:24;;;;;;;11.95;4.20;;;;;;;;;;4932235;29;20035;-61
2023/10/12 00:22:09;;;;;;;11.30;4.22;;;;;;;;;;4932559;29;20062;-61
2023/10/12 00:24:35;;;;;;;11.13;4.20;;;;;;;;;;4917202;29;20032;-60
2023/10/12 00:27:02;;;;;;;11.82;4.43;;;;;;;;;;4916854;29;20043;-60
2023/10/12 00:29:28;;;;;;;11.55;4.25;;;;;;;;;;4933549;29;20175;-60
2023/10/12 00:31:57;;;;;;;10.35;4.40;;;;;;;;;;4935383;29;20043;-60
2023/10/12 00:34:23;;;;;;;10.70;4.30;;;;;;;;;;4920629;29;20035;-59
2023/10/12 00:36:52;;;;;;;10.65;4.63;;;;;;;;;;4940880;29;20039;-61
2023/10/12 00:39:20;;;;;;;11.85;4.30;;;;;;;;;;4914461;29;20036;-60
2023/10/12 00:41:45;;;;;;;14.60;4.57;;;;;;;;;;4937483;29;20106;-60
2023/10/12 00:44:12;;;;;;;12.10;4.40;;;;;;;;;;4935277;29;20502;-60
2023/10/12 00:46:58;;;;;;;11.75;4.47;;;;;;;;;;4934132;29;20068;-60
2023/10/12 00:49:30;;;;;;;13.30;4.90;;;;;;;;;;4934232;29;20042;-60
2023/10/12 00:52:08;;;;;;;10.13;4.50;;;;;;;;;;4933662;29;20055;-60
2023/10/12 00:57:10;;;;;;;10.00;4.53;;;;;;;;;;4938795;29;20031;-61
2023/10/12 00:59:40;;;;;;;11.25;4.78;;;;;;;;;;4927155;29;20038;-60
2023/10/12 01:02:09;;;;;;;9.77;4.47;;;;;;;;;;4917299;29;20477;-60
2023/10/12 01:04:36;;;;;;;12.00;4.75;;;;;;;;;;4939697;29;20030;-60
2023/10/12 01:07:06;;;;;;;15.85;4.55;;;;;;;;;;4917782;29;20329;-60
2023/10/12 01:09:39;;;;;;;11.70;4.97;;;;;;;;;;4944131;29;20421;-60
2023/10/12 01:12:14;;;;;;;11.07;4.65;;;;;;;;;;4922489;29;20059;-60
2023/10/12 01:14:51;;;;;;;12.60;4.95;;;;;;;;;;4932084;29;20023;-60
2023/10/12 01:17:35;;;;;;;13.32;4.70;;;;;;;;;;4933336;29;20032;-61
2023/10/12 01:20:10;;;;;;;17.45;5.70;;;;;;;;;;4933558;29;20148;-59
2023/10/12 01:22:39;;;;;;;10.65;5.18;;;;;;;;;;4930374;29;20589;-61
2023/10/12 01:25:10;;;;;;;11.63;5.15;;;;;;;;;;4932759;29;20034;-59
2023/10/12 01:27:41;;;;;;;12.70;5.70;;;;;;;;;;4915216;29;20235;-60
2023/10/12 01:30:22;;;;;;;11.05;5.90;;;;;;;;;;4936914;29;20437;-60
2023/10/12 01:32:57;;;;;;;16.95;6.10;;;;;;;;;;4921860;29;20046;-60
2023/10/12 01:35:27;;;;;;;13.45;5.85;;;;;;;;;;4951658;29;20074;-60
2023/10/12 01:38:00;;;;;;;17.88;6.28;;;;;;;;;;4933369;29;20092;-60
2023/10/12 01:40:27;;;;;;;9.07;5.90;;;;;;;;;;4914062;29;20036;-60
2023/10/12 01:42:56;;;;;;;14.65;5.97;;;;;;;;;;4905970;29;20044;-61
2023/10/12 01:47:57;;;;;;;17.55;6.63;;;;;;;;;;4932421;29;20429;-60
2023/10/12 01:50:28;;;;;;;12.88;7.32;;;;;;;;;;4928231;29;20043;-60
2023/10/12 01:52:56;;;;;;;14.80;6.85;;;;;;;;;;4914665;29;21060;-60
2023/10/12 01:55:30;;;;;;;11.43;7.25;;;;;;;;;;4932886;29;20104;-60
2023/10/12 01:57:57;;;;;;;16.63;8.10;;;;;;;;;;4932977;29;20118;-60
2023/10/12 02:00:39;;;;;;;15.57;8.13;;;;;;;;;;4932284;29;20039;-61
2023/10/12 02:03:18;;;;;;;18.67;8.80;;;;;;;;;;4915468;29;20040;-61
2023/10/12 02:05:58;;;;;;;17.90;8.82;;;;;;;;;;4938332;29;20122;-62
2023/10/12 02:08:27;;;;;;;15.60;8.95;;;;;;;;;;4931896;29;20131;-61
2023/10/12 02:10:58;;;;;;;18.50;8.60;;;;;;;;;;4935138;29;20114;-60
2023/10/12 02:13:24;;;;;;;18.38;9.40;;;;;;;;;;4931053;29;20476;-60
2023/10/12 02:15:50;;;;;;;20.23;9.80;;;;;;;;;;4902104;29;20044;-59
2023/10/12 02:18:19;;;;;;;19.55;10.40;;;;;;;;;;4933595;29;20039;-60
2023/10/12 02:23:36;;;;;;;20.75;11.18;;;;;;;;;;4918407;29;20263;-59
2023/10/12 02:28:53;;;;;;;25.73;12.13;;;;;;;;;;4930534;29;20453;-61
2023/10/12 02:31:21;;;;;;;27.45;12.68;;;;;;;;;;4934297;29;20036;-61
2023/10/12 02:33:47;;;;;;;19.77;11.68;;;;;;;;;;4932675;29;20042;-59
2023/10/12 02:36:13;;;;;;;20.90;11.98;;;;;;;;;;4931432;29;20032;-59
2023/10/12 02:38:41;;;;;;;21.33;12.88;;;;;;;;;;4928363;29;20044;-59
2023/10/12 02:41:12;;;;;;;24.75;12.65;;;;;;;;;;4906531;29;20036;-59
2023/10/12 02:43:50;;;;;;;21.92;12.73;;;;;;;;;;4924067;29;20054;-61
2023/10/12 02:46:21;;;;;;;22.05;13.07;;;;;;;;;;4931337;29;20035;-60
2023/10/12 02:48:48;;;;;;;24.85;13.20;;;;;;;;;;4918413;29;20043;-60
2023/10/12 02:51:16;;;;;;;25.10;13.60;;;;;;;;;;4931195;29;20035;-60
2023/10/12 02:53:44;;;;;;;30.90;14.10;;;;;;;;;;4929825;29;20156;-59
2023/10/12 02:56:09;;;;;;;26.88;15.02;;;;;;;;;;4929591;29;20046;-60
2023/10/12 02:58:35;;;;;;;33.03;15.55;;;;;;;;;;4910963;29;20470;-60
2023/10/12 03:01:14;;;;;;;33.30;16.13;;;;;;;;;;4921252;29;20413;-60
2023/10/12 03:03:48;;;;;;;33.28;17.40;;;;;;;;;;4932000;29;20929;-59
2023/10/12 03:06:20;;;;;;;37.35;17.75;;;;;;;;;;4918738;29;20406;-59
2023/10/12 03:09:00;;;;;;;38.65;18.10;;;;;;;;;;4906607;29;20067;-60
2023/10/12 03:11:26;;;;;;;34.67;17.80;;;;;;;;;;4918811;29;20051;-60
2023/10/12 03:14:14;;;;;;;38.33;19.08;;;;;;;;;;4936776;29;20031;-59
2023/10/12 03:16:43;;;;;;;39.42;19.48;;;;;;;;;;4937305;29;20039;-61
2023/10/12 03:19:17;;;;;;;46.85;21.15;;;;;;;;;;4936457;29;20033;-61
2023/10/12 03:21:49;;;;;;;45.95;20.80;;;;;;;;;;4882470;29;20632;-59
2023/10/12 03:24:16;;;;;;;40.80;21.45;;;;;;;;;;4905129;29;20032;-59
2023/10/12 03:27:11;;;;;;;40.15;21.90;;;;;;;;;;4929639;29;20103;-60
2023/10/12 03:29:44;;;;;;;45.20;22.08;;;;;;;;;;4929186;29;20035;-58
2023/10/12 03:32:16;;;;;;;51.03;23.23;;;;;;;;;;4932459;29;20039;-57
2023/10/12 03:37:14;;;;;;;47.22;22.88;;;;;;;;;;4931288;29;20059;-57
2023/10/12 03:42:41;;;;;;;41.20;21.80;;;;;;;;;;4918065;29;20123;-60
2023/10/12 03:45:08;;;;;;;40.60;20.58;;;;;;;;;;4934240;29;20058;-59
2023/10/12 03:47:46;;;;;;;39.42;20.35;;;;;;;;;;4935599;29;20091;-60
2023/10/12 03:50:17;;;;;;;42.55;20.90;;;;;;;;;;4929722;29;20039;-60
2023/10/12 03:52:52;;;;;;;38.83;19.95;;;;;;;;;;4931937;29;20032;-60
2023/10/12 03:55:42;;;;;;;40.38;18.95;;;;;;;;;;4935957;29;20043;-60
2023/10/12 03:58:06;;;;;;;39.00;18.77;;;;;;;;;;4934702;29;20047;-60
2023/10/12 04:01:05;;;;;;;38.47;18.70;;;;;;;;;;4931828;29;20032;-61
2023/10/12 04:03:36;;;;;;;31.37;16.33;;;;;;;;;;4916758;29;20036;-60
2023/10/12 04:06:15;;;;;;;31.33;17.07;;;;;;;;;;4935167;29;20035;-61
2023/10/12 04:08:46;;;;;;;36.67;17.48;;;;;;;;;;4915846;29;20036;-60
2023/10/12 04:12:16;;;;;;;36.88;18.13;;;;;;;;;;4935646;29;20048;-60
2023/10/12 04:17:06;;;;;;;36.65;18.02;;;;;;;;;;4934623;29;20066;-60
2023/10/12 04:19:33;;;;;;;34.47;17.55;;;;;;;;;;4933762;29;20437;-60
2023/10/12 04:22:11;;;;;;;41.63;17.27;;;;;;;;;;4935252;29;20533;-61
2023/10/12 04:24:42;;;;;;;35.65;17.33;;;;;;;;;;4929673;29;20500;-61
2023/10/12 04:27:24;;;;;;;38.92;18.38;;;;;;;;;;4937329;29;20028;-60
2023/10/12 04:29:56;;;;;;;37.00;16.77;;;;;;;;;;4932369;29;20126;-61
2023/10/12 04:35:21;;;;;;;33.50;16.52;;;;;;;;;;4912061;29;20051;-61
2023/10/12 04:37:47;;;;;;;33.65;17.13;;;;;;;;;;4932982;29;20036;-60
2023/10/12 04:41:22;;;;;;;36.75;18.33;;;;;;;;;;4917773;29;20095;-61
2023/10/12 04:43:04;;;;;;;38.28;18.23;;;;;;;;;;4927712;29;20438;-60
2023/10/12 04:45:30;;;;;;;34.50;17.33;;;;;;;;;;4934693;29;20036;-64
2023/10/12 04:48:07;;;;;;;35.88;17.80;;;;;;;;;;4935656;29;20036;-61
2023/10/12 04:50:52;;;;;;;34.90;17.02;;;;;;;;;;4930222;29;20040;-61
2023/10/12 04:53:18;;;;;;;36.42;17.25;;;;;;;;;;4934102;29;20039;-61
2023/10/12 04:55:47;;;;;;;37.03;17.75;;;;;;;;;;4905362;29;20119;-61
2023/10/12 04:58:30;;;;;;;41.17;17.67;;;;;;;;;;4929589;29;20043;-61
2023/10/12 05:01:09;;;;;;;35.83;17.10;;;;;;;;;;4933645;29;20035;-61
2023/10/12 05:03:39;;;;;;;41.45;17.75;;;;;;;;;;4932718;29;20113;-62
2023/10/12 05:06:04;;;;;;;35.30;17.48;;;;;;;;;;4925069;29;20044;-61
2023/10/12 05:08:33;;;;;;;37.45;16.80;;;;;;;;;;4916264;29;20035;-64
2023/10/12 05:10:58;;;;;;;40.50;17.13;;;;;;;;;;4901859;29;20469;-61
2023/10/12 05:13:24;;;;;;;35.67;17.08;;;;;;;;;;4917277;29;20039;-62
2023/10/12 05:15:54;;;;;;;33.22;16.95;;;;;;;;;;4916342;29;20493;-61
2023/10/12 05:18:21;;;;;;;;;;;;;;;;;;4917678;29;20032;-61
2023/10/12 05:20:46;;;;;;;32.38;15.65;;;;;;;;;;4940936;29;19918;-60
2023/10/12 05:23:12;;;;;;;34.53;15.90;;;;;;;;;;4950560;29;20031;-61
2023/10/12 05:25:48;;;;;;;29.02;15.55;;;;;;;;;;4945285;28;20027;-60
2023/10/12 05:28:19;;;;;;;32.67;16.80;;;;;;;;;;4954061;29;20058;-65
2023/10/12 05:30:59;;;;;;;34.75;16.35;;;;;;;;;;4943411;29;20032;-62
2023/10/12 05:36:09;;;;;;;38.30;16.77;;;;;;;;;;4941085;29;20043;-61
2023/10/12 05:38:40;;;;;;;33.38;17.15;;;;;;;;;;4949744;29;20050;-62
2023/10/12 05:41:08;;;;;;;32.85;16.48;;;;;;;;;;4916650;29;20039;-61
2023/10/12 05:43:40;;;;;;;32.55;16.20;;;;;;;;;;4945755;29;20425;-63
2023/10/12 05:46:13;;;;;;;32.90;15.65;;;;;;;;;;4951788;29;20027;-61
2023/10/12 05:48:45;;;;;;;34.45;15.95;;;;;;;;;;4951248;29;20082;-61
2023/10/12 05:51:18;;;;;;;33.92;15.98;;;;;;;;;;4932417;29;20429;-61
2023/10/12 05:53:44;;;;;;;30.75;15.25;;;;;;;;;;4948004;29;20114;-61
2023/10/12 05:56:09;;;;;;;34.67;16.13;;;;;;;;;;4937352;29;20118;-61
2023/10/12 05:58:38;;;;;;;33.03;15.32;;;;;;;;;;4949462;29;20051;-61
2023/10/12 06:01:31;;;;;;;31.60;14.15;;;;;;;;;;4937340;29;20035;-61
2023/10/12 06:03:56;;;;;;;31.85;14.88;;;;;;;;;;4947388;29;20090;-62
2023/10/12 06:06:21;;;;;;;31.23;15.13;;;;;;;;;;4941849;29;20035;-61
2023/10/12 06:08:47;;;;;;;29.13;14.57;;;;;;;;;;4941115;29;20031;-61
2023/10/12 06:11:14;;;;;;;31.65;14.25;;;;;;;;;;4932317;29;20485;-64
2023/10/12 06:13:41;;;;;;;27.08;13.63;;;;;;;;;;4931766;29;20031;-61
2023/10/12 06:16:14;;;;;;;30.63;13.52;;;;;;;;;;4931025;29;20057;-62
2023/10/12 06:18:46;;;;;;;31.02;14.25;;;;;;;;;;4921621;29;20027;-61
2023/10/12 06:21:18;;;;;;;27.98;13.75;;;;;;;;;;4931682;29;20031;-61
2023/10/12 06:23:50;;;;;;;33.63;13.93;;;;;;;;;;4930075;29;20114;-61
2023/10/12 06:26:31;;;;;;;27.20;13.70;;;;;;;;;;4930864;29;20113;-62
2023/10/12 06:28:59;;;;;;;28.17;13.77;;;;;;;;;;4927636;29;20051;-60
2023/10/12 06:31:26;;;;;;;33.92;14.60;;;;;;;;;;4923555;29;20111;-60
2023/10/12 06:33:55;;;;;;;29.15;13.52;;;;;;;;;;4914019;29;20473;-61
2023/10/12 06:36:36;;;;;;;32.50;13.75;;;;;;;;;;4903737;29;20036;-61
2023/10/12 06:44:28;;;;;;;21.60;11.80;;;;;;;;;;4928332;29;20473;-61
2023/10/12 06:46:57;;;;;;;30.58;13.27;;;;;;;;;;4898169;29;20032;-62
2023/10/12 06:49:23;;;;;;;24.70;12.38;;;;;;;;;;4934467;29;20043;-62
2023/10/12 06:52:14;;;;;;;24.60;12.38;;;;;;;;;;4932157;29;20031;-62
2023/10/12 06:54:39;;;;;;;26.63;12.73;;;;;;;;;;4914082;29;20544;-63
2023/10/12 06:59:52;;;;;;;25.92;13.15;;;;;;;;;;4933722;29;20067;-64
2023/10/12 07:02:24;;;;;;;26.80;11.93;;;;;;;;;;4915268;29;20565;-63
2023/10/12 07:04:53;;;;;;;27.73;13.75;;;;;;;;;;4895699;29;20127;-62
2023/10/12 07:07:36;;;;;;;25.55;12.30;;;;;;;;;;4908705;29;20047;-62
2023/10/12 07:12:47;;;;;;;24.65;11.68;;;;;;;;;;4917585;29;20055;-67
2023/10/12 07:15:23;;;;;;;28.42;12.40;;;;;;;;;;4921415;29;20046;-61
2023/10/12 07:17:55;;;;;;;25.73;11.95;;;;;;;;;;4931370;29;20040;-62
2023/10/12 07:22:57;;;;;;;30.80;11.50;;;;;;;;;;4914098;29;20039;-63
2023/10/12 07:25:27;;;;;;;24.35;11.80;;;;;;;;;;4924480;29;20036;-62
2023/10/12 07:28:01;;;;;;;27.08;12.38;;;;;;;;;;4932519;29;20038;-63
2023/10/12 07:30:30;;;;;;;24.52;10.70;;;;;;;;;;4917467;29;20032;-62
2023/10/12 07:32:59;;;;;;;23.20;10.95;;;;;;;;;;4905012;29;20513;-64
2023/10/12 07:35:38;;;;;;;27.25;11.30;;;;;;;;;;4913054;29;20043;-61
2023/10/12 07:38:27;;;;;;;25.38;11.18;;;;;;;;;;4929998;29;20063;-63
2023/10/12 07:43:20;;;;;;;24.30;11.57;;;;;;;;;;4927261;29;20110;-61
2023/10/12 07:45:48;;;;;;;21.45;10.20;;;;;;;;;;4913269;29;20164;-62
2023/10/12 07:48:29;;;;;;;22.80;11.13;;;;;;;;;;4924723;29;20042;-62
2023/10/12 07:51:15;;;;;;;22.73;11.20;;;;;;;;;;4933083;29;20051;-61
2023/10/12 07:53:57;;;;;;;21.52;11.20;;;;;;;;;;4914661;29;20106;-65
2023/10/12 07:56:23;;;;;;;22.60;11.18;;;;;;;;;;4936028;29;20036;-63
2023/10/12 07:58:58;;;;;;;20.60;10.25;;;;;;;;;;4917589;29;20088;-64
2023/10/12 08:03:59;;;;;;;26.23;11.43;;;;;;;;;;4933560;29;20044;-61
2023/10/12 08:11:44;;;;;;;21.92;11.35;;;;;;;;;;4925652;29;20066;-62
2023/10/12 08:19:55;;;;;;;22.92;11.73;;;;;;;;;;4942772;29;20511;-62
2023/10/12 08:22:29;;;;;;;24.15;11.55;;;;;;;;;;4937097;29;20024;-62
2023/10/12 08:24:56;;;;;;;24.98;11.75;;;;;;;;;;4936342;29;20028;-62
2023/10/12 08:27:23;;;;;;;24.27;11.32;;;;;;;;;;4937894;29;20043;-61
2023/10/12 08:32:28;;;;;;;24.58;11.15;;;;;;;;;;4951803;29;20053;-62
2023/10/12 08:37:36;;;;;;;28.17;11.52;;;;;;;;;;4956079;29;20069;-61
2023/10/12 08:40:18;;;;;;;22.15;11.55;;;;;;;;;;4937982;29;20262;-62
2023/10/12 08:42:55;;;;;;;21.02;11.13;;;;;;;;;;4955230;29;20101;-66
2023/10/12 08:45:24;;;;;;;20.30;11.63;;;;;;;;;;4955045;29;20027;-62
2023/10/12 08:47:51;;;;;;;24.63;12.13;;;;;;;;;;4954989;29;20074;-62
2023/10/12 08:52:53;;;;;;;21.42;12.05;;;;;;;;;;4954932;29;20123;-65
2023/10/12 08:55:24;;;;;;;24.27;12.82;;;;;;;;;;4955407;29;20031;-61
2023/10/12 08:58:25;;;;;;;25.85;13.07;;;;;;;;;;4937537;29;20031;-62
2023/10/12 09:01:10;;;;;;;27.73;12.50;;;;;;;;;;4954378;29;20035;-62
2023/10/12 09:03:45;;;;;;;26.65;13.02;;;;;;;;;;4954962;29;20039;-61
2023/10/12 09:06:29;;;;;;;23.63;11.95;;;;;;;;;;4955596;29;20042;-61
2023/10/12 09:08:56;;;;;;;21.27;11.45;;;;;;;;;;4938737;29;20120;-62
2023/10/12 09:11:29;;;;;;;22.70;12.50;;;;;;;;;;4936088;29;20054;-62
2023/10/12 09:13:57;;;;;;;25.58;12.43;;;;;;;;;;4917349;29;20046;-62
2023/10/12 09:16:23;;;;;;;25.90;12.63;;;;;;;;;;4934378;29;20027;-62
2023/10/12 09:18:56;;;;;;;25.02;12.10;;;;;;;;;;4932878;29;20476;-60
2023/10/12 09:23:50;;;;;;;21.45;11.13;;;;;;;;;;4933612;29;20070;-61
2023/10/12 09:26:25;;;;;;;25.13;10.35;;;;;;;;;;4940384;29;20039;-61
2023/10/12 09:29:04;;;;;;;23.23;11.15;;;;;;;;;;4932663;29;20039;-61
2023/10/12 09:36:38;;;;;;;19.77;10.00;;;;;;;;;;4940839;29;20115;-61
2023/10/12 09:39:12;;;;;;;21.88;10.00;;;;;;;;;;4934761;29;20039;-60
2023/10/12 09:41:41;;;;;;;21.27;10.00;;;;;;;;;;4934587;29;20035;-60
2023/10/12 09:44:11;;;;;;;19.42;9.35;;;;;;;;;;4917582;29;20098;-60
2023/10/12 09:46:46;;;;;;;22.27;9.70;;;;;;;;;;4935647;29;20036;-60
2023/10/12 09:49:29;;;;;;;22.73;10.20;;;;;;;;;;4932264;29;20083;-61
2023/10/12 09:51:59;;;;;;;20.40;10.20;;;;;;;;;;4934428;29;20039;-61
2023/10/12 09:54:48;;;;;;;22.25;11.50;;;;;;;;;;4935088;29;20077;-61
2023/10/12 09:57:23;;;;;;;25.27;12.13;;;;;;;;;;4935142;29;20102;-61
2023/10/12 09:59:52;;;;;;;30.13;13.10;;;;;;;;;;4934699;29;20085;-62
2023/10/12 10:02:30;;;;;;;28.50;13.93;;;;;;;;;;4937317;29;20031;-61
2023/10/12 10:05:51;;;;;;;30.48;14.25;;;;;;;;;;4953563;29;20031;-61
2023/10/12 10:08:06;;;;;;;26.60;13.77;;;;;;;;;;4937546;29;20047;-60
2023/10/12 10:10:35;;;;;;;27.67;13.10;;;;;;;;;;4942759;29;20118;-60
2023/10/12 10:13:12;;;;;;;27.73;13.85;;;;;;;;;;4934505;29;20075;-60
2023/10/12 10:15:56;;;;;;;26.08;13.75;;;;;;;;;;4934959;29;20036;-60
2023/10/12 10:18:28;;;;;;;29.60;14.15;;;;;;;;;;4934140;29;20039;-61
2023/10/12 10:20:57;;;;;;;32.47;14.15;;;;;;;;;;4932999;29;20039;-62
2023/10/12 10:23:25;;;;;;;26.45;14.35;;;;;;;;;;4935213;29;20130;-63
2023/10/12 10:26:16;;;;;;;27.88;14.10;;;;;;;;;;4952340;29;20110;-62
2023/10/12 10:28:55;;;;;;;29.38;13.77;;;;;;;;;;4935018;29;20068;-62
2023/10/12 10:31:28;;;;;;;30.00;13.38;;;;;;;;;;4918850;29;20126;-61
2023/10/12 10:34:01;;;;;;;26.13;14.15;;;;;;;;;;4932658;29;20043;-61
2023/10/12 10:36:34;;;;;;;28.05;13.88;;;;;;;;;;4936192;29;20058;-60
2023/10/12 10:39:28;;;;;;;25.80;13.48;;;;;;;;;;4931227;29;20034;-61
2023/10/12 10:41:56;;;;;;;27.38;13.43;;;;;;;;;;4932463;29;20042;-63
2023/10/12 10:44:23;;;;;;;25.23;13.20;;;;;;;;;;4933072;29;20055;-60
2023/10/12 10:46:54;;;;;;;29.50;13.88;;;;;;;;;;4925275;29;20130;-63
2023/10/12 10:49:20;;;;;;;25.33;12.63;;;;;;;;;;4934908;29;20031;-61
2023/10/12 10:52:38;;;;;;;26.52;13.38;;;;;;;;;;4934554;29;20062;-61
2023/10/12 10:54:39;;;;;;;21.42;12.23;;;;;;;;;;4943074;29;20547;-62
2023/10/12 10:57:15;;;;;;;28.02;11.75;;;;;;;;;;4952952;29;20066;-60
2023/10/12 10:59:45;;;;;;;21.55;11.48;;;;;;;;;;4953767;29;20031;-60
2023/10/12 11:02:14;;;;;;;24.27;11.70;;;;;;;;;;4935903;29;20207;-60
2023/10/12 11:07:12;;;;;;;21.55;11.43;;;;;;;;;;4933561;29;20027;-60
2023/10/12 11:12:17;;;;;;;21.55;11.60;;;;;;;;;;4934402;29;20082;-60
2023/10/12 11:15:00;;;;;;;22.55;12.00;;;;;;;;;;4917274;29;20386;-60
2023/10/12 11:17:30;;;;;;;21.60;11.55;;;;;;;;;;4934293;29;20093;-60
2023/10/12 11:20:00;;;;;;;27.10;11.38;;;;;;;;;;4916470;29;20469;-61
2023/10/12 11:22:25;;;;;;;20.23;12.07;;;;;;;;;;4935409;29;20043;-61
2023/10/12 11:24:53;;;;;;;24.00;11.95;;;;;;;;;;4920395;29;20028;-64
2023/10/12 11:27:31;;;;;;;25.63;11.20;;;;;;;;;;4938026;29;20035;-60
2023/10/12 11:30:00;;;;;;;24.65;12.45;;;;;;;;;;4936795;29;20067;-59
2023/10/12 11:32:28;;;;;;;24.48;12.52;;;;;;;;;;4920846;29;20486;-59
2023/10/12 11:34:59;;;;;;;23.20;12.23;;;;;;;;;;4920286;29;20507;-62
2023/10/12 11:37:27;;;;;;;23.23;12.27;;;;;;;;;;4937983;29;20043;-60
2023/10/12 11:39:54;;;;;;;27.45;13.27;;;;;;;;;;4937072;29;20043;-62
2023/10/12 11:42:20;;;;;;;22.42;12.07;;;;;;;;;;4937825;29;20035;-59
2023/10/12 11:44:47;;;;;;;23.92;12.40;;;;;;;;;;4937673;29;20036;-60
2023/10/12 11:47:23;;;;;;;25.20;12.27;;;;;;;;;;4919871;29;20321;-61
2023/10/12 11:49:58;;;;;;;24.50;11.73;;;;;;;;;;4936265;29;20044;-61
2023/10/12 11:52:33;;;;;;;23.73;12.25;;;;;;;;;;4936567;29;20064;-61
2023/10/12 11:55:19;;;;;;;23.05;11.68;;;;;;;;;;4932475;29;20493;-61
2023/10/12 11:57:58;;;;;;;23.00;12.35;;;;;;;;;;4921082;29;20035;-61
2023/10/12 12:00:36;;;;;;;24.80;10.93;;;;;;;;;;4936398;29;20039;-61
2023/10/12 12:03:03;;;;;;;23.80;11.10;;;;;;;;;;4935230;29;20039;-60
2023/10/12 12:05:33;;;;;;;22.92;10.73;;;;;;;;;;4935590;29;20114;-60
2023/10/12 12:08:14;;;;;;;26.00;11.13;;;;;;;;;;4936272;29;20434;-61
2023/10/12 12:10:45;;;;;;;;;;;;;;;;;;4937593;29;20126;-60
2023/10/12 12:13:15;;;;;;;19.77;9.35;;;;;;;;;;4917437;29;20369;-60
2023/10/12 12:15:43;;;;;;;22.63;10.35;;;;;;;;;;4918053;29;20028;-61
2023/10/12 12:18:30;;;;;;;20.52;9.80;;;;;;;;;;4917327;29;20426;-60
2023/10/12 12:21:03;;;;;;;21.33;9.80;;;;;;;;;;4917579;29;20032;-62
2023/10/12 12:23:34;;;;;;;18.77;9.05;;;;;;;;;;4926146;29;20429;-60
2023/10/12 12:26:09;;;;;;;19.95;9.18;;;;;;;;;;4948057;29;20039;-60
2023/10/12 12:28:43;;;;;;;21.73;9.50;;;;;;;;;;4937070;29;20028;-60
2023/10/12 12:31:15;;;;;;;19.88;8.95;;;;;;;;;;4936156;29;20086;-61
2023/10/12 12:33:43;;;;;;;16.60;9.27;;;;;;;;;;4935569;29;20028;-60
2023/10/12 12:36:12;;;;;;;21.95;9.82;;;;;;;;;;4935754;29;20473;-60
2023/10/12 12:41:19;;;;;;;21.40;9.93;;;;;;;;;;4955056;29;20050;-60
2023/10/12 12:43:46;;;;;;;23.73;10.05;;;;;;;;;;4942377;29;20157;-60
2023/10/12 12:46:12;;;;;;;20.92;10.07;;;;;;;;;;4954862;29;20031;-60
2023/10/12 12:48:45;;;;;;;21.15;9.68;;;;;;;;;;4955772;29;20077;-61
2023/10/12 12:51:15;;;;;;;19.98;9.43;;;;;;;;;;4954756;29;20039;-60
2023/10/12 12:53:42;;;;;;;23.75;9.60;;;;;;;;;;4955794;29;20465;-60
2023/10/12 12:56:14;;;;;;;21.52;9.70;;;;;;;;;;4954261;29;20027;-61
2023/10/12 12:58:47;;;;;;;18.77;9.50;;;;;;;;;;4955573;29;20039;-60
2023/10/12 13:01:14;;;;;;;22.98;9.60;;;;;;;;;;4951457;29;20045;-60
2023/10/12 13:03:40;;;;;;;20.35;9.32;;;;;;;;;;4955556;29;20118;-60
2023/10/12 13:06:07;;;;;;;20.48;9.82;;;;;;;;;;4934651;29;20095;-60
2023/10/12 13:08:34;;;;;;;22.40;10.15;;;;;;;;;;4934100;29;20118;-61
2023/10/12 13:10:59;;;;;;;20.95;10.23;;;;;;;;;;4938180;29;20063;-63
2023/10/12 13:13:25;;;;;;;21.48;10.48;;;;;;;;;;4930984;29;20035;-61
2023/10/12 13:15:50;;;;;;;21.55;10.13;;;;;;;;;;4933535;29;20441;-60
2023/10/12 13:18:16;;;;;;;22.60;10.13;;;;;;;;;;4913220;29;20062;-60
2023/10/12 13:20:46;;;;;;;24.55;10.20;;;;;;;;;;4927819;29;20024;-60
2023/10/12 13:23:18;;;;;;;23.40;11.07;;;;;;;;;;4915968;29;20040;-60
2023/10/12 13:25:44;;;;;;;26.23;10.45;;;;;;;;;;4916926;29;20096;-60
2023/10/12 13:28:10;;;;;;;22.42;11.35;;;;;;;;;;4916094;29;20040;-61
2023/10/12 13:30:39;;;;;;;23.35;10.30;;;;;;;;;;4900021;29;20434;-60
2023/10/12 13:33:06;;;;;;;22.17;10.60;;;;;;;;;;4916267;29;20051;-60
2023/10/12 13:38:10;;;;;;;21.65;10.43;;;;;;;;;;4934813;29;20038;-60
2023/10/12 13:40:39;;;;;;;22.67;11.68;;;;;;;;;;4935505;29;20024;-60
2023/10/12 13:43:26;;;;;;;23.70;11.25;;;;;;;;;;4934861;29;20039;-60
2023/10/12 13:45:54;;;;;;;27.10;10.80;;;;;;;;;;4934826;29;20119;-60
2023/10/12 13:48:27;;;;;;;20.73;11.02;;;;;;;;;;4917721;29;20174;-60
2023/10/12 13:51:00;;;;;;;26.17;11.82;;;;;;;;;;4918284;29;20038;-60
2023/10/12 13:53:28;;;;;;;25.98;10.90;;;;;;;;;;4935099;29;20093;-61
2023/10/12 13:55:56;;;;;;;25.02;12.13;;;;;;;;;;4918175;29;20119;-60
2023/10/12 13:58:24;;;;;;;24.85;12.25;;;;;;;;;;4917557;29;20612;-60
2023/10/12 14:00:56;;;;;;;24.80;11.95;;;;;;;;;;4935254;29;20032;-60
2023/10/12 14:03:38;;;;;;;26.40;12.55;;;;;;;;;;4917437;29;20028;-60
2023/10/12 14:06:06;;;;;;;26.27;13.05;;;;;;;;;;4934362;29;20079;-61
2023/10/12 14:08:42;;;;;;;26.65;12.95;;;;;;;;;;4934917;29;20543;-60
2023/10/12 14:11:13;;;;;;;25.02;13.50;;;;;;;;;;4917133;29;20044;-60
2023/10/12 14:13:38;;;;;;;23.55;12.70;;;;;;;;;;4935069;29;20027;-60
2023/10/12 14:16:07;;;;;;;24.48;12.85;;;;;;;;;;4916536;29;20399;-61
2023/10/12 14:18:32;;;;;;;27.20;13.13;;;;;;;;;;4917914;29;20047;-60
2023/10/12 14:20:58;;;;;;;23.02;12.73;;;;;;;;;;4933842;29;20028;-60
2023/10/12 14:23:38;;;;;;;24.67;13.02;;;;;;;;;;4932795;29;20042;-61
2023/10/12 14:26:03;;;;;;;21.60;12.52;;;;;;;;;;4930884;29;20050;-63
2023/10/12 14:28:34;;;;;;;21.25;13.25;;;;;;;;;;4934549;29;20036;-61
2023/10/12 14:31:00;;;;;;;25.85;13.23;;;;;;;;;;4933364;29;20028;-61
2023/10/12 14:33:30;;;;;;;24.77;13.25;;;;;;;;;;4932535;29;20043;-61
2023/10/12 14:35:56;;;;;;;24.70;13.10;;;;;;;;;;4917567;29;20063;-60
2023/10/12 14:38:22;;;;;;;24.85;13.48;;;;;;;;;;4928447;29;20746;-60
2023/10/12 14:40:50;;;;;;;29.65;13.77;;;;;;;;;;4953800;29;20093;-60
2023/10/12 14:43:16;;;;;;;23.58;13.55;;;;;;;;;;4935928;29;20031;-61
2023/10/12 14:45:55;;;;;;;23.33;13.68;;;;;;;;;;4934240;29;20035;-61
2023/10/12 14:48:20;;;;;;;25.60;14.55;;;;;;;;;;4933901;29;20064;-60
2023/10/12 14:50:47;;;;;;;31.13;14.32;;;;;;;;;;4934480;29;20115;-61
2023/10/12 14:53:16;;;;;;;23.05;14.88;;;;;;;;;;4933823;29;20034;-61
2023/10/12 14:55:53;;;;;;;26.92;14.68;;;;;;;;;;4934424;29;20069;-62
2023/10/12 14:58:20;;;;;;;28.45;15.45;;;;;;;;;;4915478;29;20031;-61
2023/10/12 15:00:45;;;;;;;25.05;14.68;;;;;;;;;;4934160;29;20385;-60
2023/10/12 15:03:25;;;;;;;27.35;15.30;;;;;;;;;;4933376;29;20137;-61
2023/10/12 15:05:55;;;;;;;25.60;14.50;;;;;;;;;;4934378;29;20488;-62
2023/10/12 15:08:21;;;;;;;21.83;14.15;;;;;;;;;;4933871;29;20163;-62
2023/10/12 15:10:47;;;;;;;23.77;14.45;;;;;;;;;;4916755;29;20047;-62
2023/10/12 15:13:14;;;;;;;25.60;14.55;;;;;;;;;;4933376;29;20036;-63
2023/10/12 15:15:45;;;;;;;33.35;15.38;;;;;;;;;;4933830;29;20034;-62
2023/10/12 15:18:15;;;;;;;27.33;14.27;;;;;;;;;;4933414;29;20028;-62
2023/10/12 15:20:44;;;;;;;27.33;14.75;;;;;;;;;;4933967;29;20108;-61
2023/10/12 15:23:13;;;;;;;26.08;14.20;;;;;;;;;;4933527;29;20028;-62
2023/10/12 15:25:38;;;;;;;26.35;14.25;;;;;;;;;;4930156;29;20084;-62
2023/10/12 15:28:06;;;;;;;26.85;15.05;;;;;;;;;;4915098;29;20497;-63
2023/10/12 15:30:33;;;;;;;27.63;14.45;;;;;;;;;;4914832;29;20036;-62
2023/10/12 15:32:59;;;;;;;25.58;13.50;;;;;;;;;;4924984;29;20032;-62
2023/10/12 15:35:30;;;;;;;26.58;14.32;;;;;;;;;;4896766;29;20036;-63
2023/10/12 15:37:57;;;;;;;24.50;13.95;;;;;;;;;;4917419;29;20027;-62
2023/10/12 15:40:26;;;;;;;27.70;14.32;;;;;;;;;;4902258;29;20039;-62
2023/10/12 15:42:54;;;;;;;22.02;13.23;;;;;;;;;;4914532;29;20092;-60
2023/10/12 15:45:21;;;;;;;24.83;13.85;;;;;;;;;;4933644;29;20480;-60
2023/10/12 15:47:48;;;;;;;22.20;14.10;;;;;;;;;;4909222;29;20035;-60
2023/10/12 15:50:14;;;;;;;23.48;12.07;;;;;;;;;;4897568;29;20469;-61
2023/10/12 15:52:47;;;;;;;21.63;12.15;;;;;;;;;;4915143;29;20491;-61
2023/10/12 15:55:14;;;;;;;19.90;12.27;;;;;;;;;;4914270;29;20496;-60
2023/10/12 15:57:42;;;;;;;21.92;12.13;;;;;;;;;;4914786;29;20044;-60
2023/10/12 16:00:22;;;;;;;20.20;12.05;;;;;;;;;;4923345;29;20032;-63
2023/10/12 16:03:01;;;;;;;23.13;11.85;;;;;;;;;;4933904;29;20070;-60
2023/10/12 16:05:28;;;;;;;22.77;12.00;;;;;;;;;;4916218;29;20044;-60
2023/10/12 16:07:55;;;;;;;25.25;12.50;;;;;;;;;;4933936;29;20091;-61